Time;durP1;ratioP1;P1;durP2;ratioP2;P2;SDS_P1;SDS_P2;PMS_P1;PMS_P2;Temp;Humidity;BMP_temperature;BMP_pressure;BME280_temperature;BME280_humidity;BME280_pressure;Samples;Min_cycle;Max_cycle;Signal;HPM_P1;HPM_P2
2022/11/10 00:02:15;;;;;;;20.73;2.83;;;;;;;18.18;56.11;101686.25;5042058;28;20030;-69
2022/11/10 00:04:40;;;;;;;15.93;3.07;;;;;;;18.22;56.36;101687.88;5044431;28;20526;-68
2022/11/10 00:07:05;;;;;;;18.47;3.30;;;;;;;18.54;53.80;101696.66;5076352;28;20024;-69
2022/11/10 00:09:31;;;;;;;20.57;3.17;;;;;;;18.25;54.76;101697.53;5042591;28;20033;-68
2022/11/10 00:11:56;;;;;;;28.33;3.40;;;;;;;18.53;54.42;101700.22;5044124;28;20542;-69
2022/11/10 00:17:05;;;;;;;24.07;3.47;;;;;;;17.63;58.04;101709.72;5042177;28;20052;-69
2022/11/10 00:19:33;;;;;;;32.93;3.33;;;;;;;18.67;54.47;101699.81;5040404;28;20025;-69
2022/11/10 00:21:59;;;;;;;19.50;3.27;;;;;;;18.51;54.62;101703.84;5041960;28;20122;-69
2022/11/10 00:24:25;;;;;;;24.20;3.70;;;;;;;18.21;55.60;101707.31;5044682;28;20021;-69
2022/11/10 00:26:50;;;;;;;26.83;3.80;;;;;;;18.01;55.78;101707.88;5042944;28;20052;-68
2022/11/10 00:29:16;;;;;;;22.27;3.90;;;;;;;18.70;54.63;101712.06;5043660;28;20039;-68
2022/11/10 00:31:42;;;;;;;22.33;2.73;;;;;;;17.70;56.68;101716.56;5042554;28;20143;-69
2022/11/10 00:34:12;;;;;;;23.40;3.70;;;;;;;17.99;57.26;101706.19;5041230;28;20017;-69
2022/11/10 00:36:38;;;;;;;18.03;2.43;;;;;;;18.90;54.57;101706.22;5044318;28;20486;-69
2022/11/10 00:39:03;;;;;;;22.17;3.00;;;;;;;19.14;52.95;101702.78;5041529;28;20034;-69
2022/11/10 00:41:29;;;;;;;26.27;4.77;;;;;;;17.89;55.81;101711.69;5041049;28;20129;-69
2022/11/10 00:43:54;;;;;;;21.07;3.77;;;;;;;18.75;53.91;101697.81;5041151;28;20071;-69
2022/11/10 00:46:20;;;;;;;27.73;4.67;;;;;;;18.55;53.50;101706.34;5042948;28;20029;-69
2022/11/10 00:48:45;;;;;;;23.23;3.23;;;;;;;19.03;52.13;101702.28;5041198;28;20032;-68
2022/11/10 00:51:26;;;;;;;24.10;3.40;;;;;;;18.20;55.65;101715.28;5041470;28;20136;-69
2022/11/10 00:53:52;;;;;;;26.53;3.73;;;;;;;17.88;57.58;101722.31;5046580;28;20228;-69
2022/11/10 00:56:18;;;;;;;30.10;4.07;;;;;;;18.48;55.88;101720.69;5041687;28;20035;-68
2022/11/10 00:58:44;;;;;;;28.23;3.57;;;;;;;17.83;57.86;101722.41;5069913;28;20064;-69
2022/11/10 01:01:10;;;;;;;20.70;3.33;;;;;;;18.45;55.70;101726.91;5041872;28;20020;-69
2022/11/10 01:03:35;;;;;;;21.10;3.40;;;;;;;17.43;60.05;101734.00;5043996;28;20021;-69
2022/11/10 01:06:06;;;;;;;19.63;3.40;;;;;;;17.96;58.16;101728.28;5043608;28;20551;-68
2022/11/10 01:08:31;;;;;;;30.50;3.17;;;;;;;18.18;57.73;101727.72;5041519;28;20473;-68
2022/11/10 01:11:01;;;;;;;28.43;3.67;;;;;;;17.13;61.00;101731.16;5076821;28;20079;-69
2022/11/10 01:13:27;;;;;;;30.23;4.03;;;;;;;18.28;56.64;101729.19;5043066;28;20033;-69
2022/11/10 01:15:52;;;;;;;24.57;3.60;;;;;;;18.64;55.36;101731.66;5040754;28;20975;-69
2022/11/10 01:18:17;;;;;;;24.33;2.87;;;;;;;17.29;60.73;101736.97;5059006;28;20070;-69
2022/11/10 01:20:43;;;;;;;22.23;3.23;;;;;;;17.80;59.30;101733.97;5043875;28;20028;-69
2022/11/10 01:23:09;;;;;;;20.93;3.33;;;;;;;18.31;55.98;101744.97;5043700;28;20102;-69
2022/11/10 01:25:34;;;;;;;29.17;4.07;;;;;;;17.45;59.01;101740.97;5045016;28;20446;-69
2022/11/10 01:27:59;;;;;;;28.53;4.07;;;;;;;18.27;55.91;101743.31;5043848;28;20165;-69
2022/11/10 01:30:25;;;;;;;32.93;5.00;;;;;;;18.26;56.88;101746.88;5043856;28;20079;-69
2022/11/10 01:32:50;;;;;;;21.43;3.97;;;;;;;17.81;58.89;101746.25;5042895;28;20445;-69
2022/11/10 01:35:16;;;;;;;20.77;4.20;;;;;;;18.88;54.75;101735.41;5045749;28;20021;-69
2022/11/10 01:37:41;;;;;;;21.33;3.03;;;;;;;18.63;55.23;101745.84;5044389;28;20032;-69
2022/11/10 01:40:08;;;;;;;21.77;3.27;;;;;;;17.49;58.49;101748.84;5073808;28;20052;-69
2022/11/10 01:42:48;;;;;;;21.27;2.97;;;;;;;17.80;58.75;101749.81;5042913;28;20017;-69
2022/11/10 01:45:23;;;;;;;25.17;3.63;;;;;;;17.92;58.38;101753.94;5053118;28;20033;-69
2022/11/10 01:47:51;;;;;;;28.40;3.30;;;;;;;18.29;57.02;101752.09;5052058;28;20108;-69
2022/11/10 01:50:18;;;;;;;32.23;3.23;;;;;;;18.54;56.44;101735.50;5042840;28;20036;-69
2022/11/10 01:52:47;;;;;;;29.30;4.00;;;;;;;18.24;57.12;101746.06;5042040;28;20028;-69
2022/11/10 01:55:14;;;;;;;24.00;3.40;;;;;;;18.29;56.76;101752.94;5041216;28;20383;-70
2022/11/10 01:57:40;;;;;;;27.57;4.20;;;;;;;17.50;60.14;101761.16;5044158;28;20482;-69
2022/11/10 02:00:07;;;;;;;27.90;3.60;;;;;;;17.66;58.66;101770.44;5075322;28;20041;-69
2022/11/10 02:02:57;;;;;;;22.27;3.30;;;;;;;18.07;57.33;101779.13;5044684;28;20025;-69
2022/11/10 02:05:24;;;;;;;27.57;3.20;;;;;;;18.31;56.60;101772.31;5042872;28;20017;-69
2022/11/10 02:07:50;;;;;;;21.63;3.87;;;;;;;17.83;57.66;101788.50;5053834;28;20539;-69
2022/11/10 02:10:18;;;;;;;29.73;3.97;;;;;;;17.94;57.47;101788.28;5043184;28;20029;-69
2022/11/10 02:12:45;;;;;;;20.10;3.03;;;;;;;18.16;56.42;101787.72;5070930;28;20138;-69
2022/11/10 02:15:14;;;;;;;25.53;3.30;;;;;;;17.79;56.71;101793.03;5042001;28;20439;-69
2022/11/10 02:17:40;;;;;;;17.10;4.20;;;;;;;18.09;57.44;101792.31;5043928;28;20025;-69
2022/11/10 02:20:08;;;;;;;22.83;3.20;;;;;;;18.20;57.16;101794.66;5041436;28;20033;-68
2022/11/10 02:22:34;;;;;;;33.60;4.47;;;;;;;18.67;54.24;101799.56;5040040;28;20033;-69
2022/11/10 02:25:00;;;;;;;19.47;3.20;;;;;;;18.35;55.79;101799.53;5043381;28;20024;-69
2022/11/10 02:27:25;;;;;;;23.83;3.43;;;;;;;18.81;54.86;101798.25;5042815;28;20025;-69
2022/11/10 02:29:51;;;;;;;26.80;3.50;;;;;;;18.18;57.07;101812.38;5042298;28;21376;-69
2022/11/10 02:32:16;;;;;;;30.17;3.33;;;;;;;17.43;57.83;101803.59;5040283;28;20027;-69
2022/11/10 02:34:42;;;;;;;29.00;3.13;;;;;;;17.61;58.77;101807.56;5043065;28;20065;-69
2022/11/10 02:37:09;;;;;;;34.93;4.17;;;;;;;18.39;56.32;101817.06;5043946;28;20021;-69
2022/11/10 02:39:34;;;;;;;20.23;3.17;;;;;;;18.57;55.23;101826.28;5040805;28;20040;-69
2022/11/10 02:42:00;;;;;;;28.77;3.70;;;;;;;18.68;54.05;101827.78;5041199;28;20021;-70
2022/11/10 02:44:25;;;;;;;23.33;3.23;;;;;;;18.34;54.38;101824.28;5039933;28;20537;-69
2022/11/10 02:46:51;;;;;;;26.17;3.33;;;;;;;19.00;52.96;101824.25;5037958;28;20474;-69
2022/11/10 02:49:16;;;;;;;25.27;3.00;;;;;;;18.97;53.43;101840.19;5040650;28;20218;-69
2022/11/10 02:51:41;;;;;;;24.57;3.40;;;;;;;17.85;56.49;101833.47;5039696;28;20496;-69
2022/11/10 02:54:07;;;;;;;30.17;4.47;;;;;;;18.31;55.04;101832.28;5041237;28;20446;-69
2022/11/10 02:56:32;;;;;;;21.80;2.70;;;;;;;18.43;54.27;101829.31;5042231;28;20782;-68
2022/11/10 02:58:57;;;;;;;16.90;2.50;;;;;;;18.66;54.03;101841.06;5042049;28;20048;-69
2022/11/10 03:01:23;;;;;;;19.87;3.00;;;;;;;18.16;55.75;101845.94;5042806;28;20133;-69
2022/11/10 03:03:48;;;;;;;20.23;3.20;;;;;;;17.96;56.67;101849.97;5044652;28;20107;-69
2022/11/10 03:06:14;;;;;;;20.83;3.33;;;;;;;18.07;56.03;101845.25;5077247;28;20048;-68
2022/11/10 03:08:39;;;;;;;24.77;3.27;;;;;;;17.89;56.44;101843.91;5045904;28;20140;-69
2022/11/10 03:11:05;;;;;;;29.13;3.00;;;;;;;17.60;58.70;101852.56;5046843;28;20111;-69
2022/11/10 03:13:30;;;;;;;19.23;2.73;;;;;;;17.69;57.42;101847.03;5046266;28;20047;-68
2022/11/10 03:15:56;;;;;;;17.23;3.40;;;;;;;17.89;57.49;101853.63;5045123;28;20032;-69
2022/11/10 03:18:21;;;;;;;23.17;2.93;;;;;;;17.35;59.46;101858.41;5046475;28;20032;-69
2022/11/10 03:20:48;;;;;;;19.73;3.17;;;;;;;18.26;55.62;101863.31;5045807;28;20032;-69
2022/11/10 03:23:15;;;;;;;19.87;3.20;;;;;;;17.95;56.15;101856.16;5045466;28;20048;-69
2022/11/10 03:25:41;;;;;;;18.90;2.70;;;;;;;18.02;55.89;101854.22;5045163;28;20327;-68
2022/11/10 03:28:06;;;;;;;26.77;3.83;;;;;;;17.93;55.60;101860.63;5045539;28;20036;-69
2022/11/10 03:30:32;;;;;;;18.70;2.70;;;;;;;17.98;56.38;101864.00;5044022;28;20079;-69
2022/11/10 03:32:58;;;;;;;24.60;3.43;;;;;;;18.23;55.31;101864.25;5045898;28;20059;-69
2022/11/10 03:35:23;;;;;;;20.80;3.13;;;;;;;17.62;56.76;101871.88;5046097;28;20116;-69
2022/11/10 03:37:48;;;;;;;30.70;3.40;;;;;;;17.92;56.59;101859.72;5041709;28;20020;-69
2022/11/10 03:40:14;;;;;;;25.03;3.10;;;;;;;17.96;54.87;101871.13;5043773;28;20033;-69
2022/11/10 03:42:43;;;;;;;25.73;2.80;;;;;;;18.09;54.22;101876.97;5045486;28;20029;-69
2022/11/10 03:45:10;;;;;;;24.10;3.37;;;;;;;18.12;53.84;101879.53;5045598;28;20029;-69
2022/11/10 03:47:35;;;;;;;12.93;3.27;;;;;;;17.83;55.58;101886.34;5077238;28;20025;-68
2022/11/10 03:50:01;;;;;;;26.73;5.07;;;;;;;17.51;58.45;101885.34;5043988;28;20017;-69
2022/11/10 03:52:26;;;;;;;21.60;3.93;;;;;;;17.05;59.81;101892.47;5045708;28;20020;-69
2022/11/10 03:54:51;;;;;;;17.37;3.20;;;;;;;17.22;59.17;101896.53;5045519;28;20025;-68
2022/11/10 03:57:17;;;;;;;19.23;3.33;;;;;;;17.63;57.57;101895.63;5046771;28;20037;-68
2022/11/10 03:59:42;;;;;;;26.53;4.43;;;;;;;17.90;56.09;101900.31;5045518;28;20035;-69
2022/11/10 04:02:07;;;;;;;22.43;3.70;;;;;;;17.75;56.55;101891.84;5044094;28;20041;-69
2022/11/10 04:10:01;;;;;;;24.50;5.17;;;;;;;17.83;56.54;101907.50;5039760;28;20504;-69
2022/11/10 04:18:19;;;;;;;22.67;4.30;;;;;;;17.87;56.68;101918.91;5043619;28;20548;-68
2022/11/10 04:20:40;;;;;;;29.33;5.63;;;;;;;16.83;59.55;101938.63;5043010;28;20043;-69
2022/11/10 04:28:34;;;;;;;19.13;4.23;;;;;;;17.65;58.09;101945.81;5045451;28;20114;-69
2022/11/10 04:30:59;;;;;;;32.80;6.00;;;;;;;18.01;56.12;101931.81;5045022;28;20489;-69
2022/11/10 04:33:24;;;;;;;25.97;4.83;;;;;;;18.45;54.99;101936.03;5044418;28;20047;-69
2022/11/10 04:35:50;;;;;;;22.50;4.17;;;;;;;18.03;55.79;101944.13;5043903;28;20082;-69
2022/11/10 04:38:15;;;;;;;24.07;4.57;;;;;;;17.87;57.04;101942.69;5043710;28;20682;-69
2022/11/10 04:40:40;;;;;;;25.67;4.53;;;;;;;17.90;56.90;101938.22;5042059;28;20036;-69
2022/11/10 04:43:06;;;;;;;23.80;4.20;;;;;;;17.37;58.41;101951.69;5045892;28;20057;-69
2022/11/10 04:45:32;;;;;;;23.20;4.03;;;;;;;18.02;56.44;101960.88;5047845;28;20382;-69
2022/11/10 04:47:57;;;;;;;31.00;4.50;;;;;;;18.01;56.33;101953.88;5042705;28;20036;-69
2022/11/10 04:50:23;;;;;;;21.87;4.50;;;;;;;18.55;54.22;101960.50;5045104;28;20048;-69
2022/11/10 04:52:48;;;;;;;27.03;5.47;;;;;;;16.70;60.04;101965.25;5044060;28;20377;-69
2022/11/10 04:55:14;;;;;;;21.37;5.33;;;;;;;17.06;59.24;101962.91;5045427;28;20400;-69
2022/11/10 04:57:39;;;;;;;26.60;4.43;;;;;;;17.93;57.24;101963.78;5044985;28;20115;-69
2022/11/10 05:00:06;;;;;;;21.87;3.80;;;;;;;17.95;57.31;101959.31;5046316;28;20057;-69
2022/11/10 05:02:31;;;;;;;29.00;4.17;;;;;;;18.04;55.49;101968.78;5043176;28;20536;-69
2022/11/10 05:04:57;;;;;;;23.47;4.37;;;;;;;17.63;57.77;101974.09;5043660;28;20048;-69
2022/11/10 05:07:22;;;;;;;21.97;5.03;;;;;;;18.36;55.75;101970.66;5042811;28;20025;-69
2022/11/10 05:09:48;;;;;;;29.70;4.20;;;;;;;18.22;55.00;101981.59;5045117;28;20032;-69
2022/11/10 05:12:13;;;;;;;27.47;4.77;;;;;;;18.23;55.07;101975.41;5043189;28;20020;-69
2022/11/10 05:14:39;;;;;;;27.33;5.00;;;;;;;17.57;56.15;101984.78;5043099;28;20036;-69
2022/11/10 05:17:04;;;;;;;27.40;5.03;;;;;;;17.48;58.29;101987.63;5042363;28;20058;-69
2022/11/10 05:19:29;;;;;;;31.47;5.20;;;;;;;17.74;57.07;101981.78;5044957;28;20100;-69
2022/11/10 05:21:55;;;;;;;35.13;5.37;;;;;;;17.97;56.82;101989.25;5042813;28;20033;-69
2022/11/10 05:24:20;;;;;;;16.70;5.00;;;;;;;18.35;55.20;101990.09;5074105;28;20041;-69
2022/11/10 05:26:45;;;;;;;26.03;5.00;;;;;;;18.25;55.83;101991.25;5045318;28;20030;-68
2022/11/10 05:29:11;;;;;;;18.97;5.70;;;;;;;17.71;57.27;101993.28;5041171;28;20028;-69
2022/11/10 05:31:36;;;;;;;29.03;5.67;;;;;;;17.56;58.08;101996.28;5045824;28;20029;-69
2022/11/10 05:34:01;;;;;;;26.57;4.97;;;;;;;16.96;59.70;101996.50;5074259;28;20750;-69
2022/11/10 05:36:27;;;;;;;32.37;5.10;;;;;;;17.50;57.86;101994.59;5044266;28;20020;-69
2022/11/10 05:38:52;;;;;;;26.37;4.90;;;;;;;17.52;59.56;101994.59;5075646;28;20468;-69
2022/11/10 05:41:17;;;;;;;25.17;6.30;;;;;;;17.68;57.55;102003.94;5044186;28;20033;-70
2022/11/10 05:43:43;;;;;;;23.27;4.57;;;;;;;17.12;60.18;102005.03;5043616;28;20032;-69
2022/11/10 05:46:08;;;;;;;38.40;5.90;;;;;;;17.64;58.32;101999.63;5075057;28;20497;-69
2022/11/10 05:48:34;;;;;;;27.50;4.50;;;;;;;17.37;58.97;102004.56;5040351;28;20510;-69
2022/11/10 05:50:59;;;;;;;22.60;5.47;;;;;;;16.77;61.91;101997.72;5043667;28;20096;-69
2022/11/10 05:53:24;;;;;;;18.47;4.13;;;;;;;17.74;57.95;102001.16;5045815;28;20481;-69
2022/11/10 05:55:50;;;;;;;21.33;5.33;;;;;;;18.01;56.79;101995.31;5042094;28;20032;-69
2022/11/10 05:58:15;;;;;;;24.63;4.33;;;;;;;17.50;58.08;101999.03;5042211;28;20039;-69
2022/11/10 06:00:41;;;;;;;32.07;6.57;;;;;;;17.64;58.12;101996.97;5047336;28;20056;-69
2022/11/10 06:03:12;;;;;;;19.93;4.30;;;;;;;16.76;60.79;102004.78;5046316;28;20402;-70
2022/11/10 06:05:38;;;;;;;29.70;4.77;;;;;;;17.90;56.57;102003.44;5045758;28;20138;-69
2022/11/10 06:08:04;;;;;;;17.73;3.93;;;;;;;17.78;56.99;102010.75;5046206;28;20488;-69
2022/11/10 06:10:30;;;;;;;25.40;4.17;;;;;;;17.81;56.73;102026.56;5047229;28;20016;-69
2022/11/10 06:12:56;;;;;;;19.97;3.70;;;;;;;17.67;57.79;102033.03;5046321;28;20428;-70
2022/11/10 06:15:22;;;;;;;19.30;3.70;;;;;;;18.47;54.93;102034.78;5045672;28;20059;-70
2022/11/10 06:17:48;;;;;;;26.37;4.00;;;;;;;18.13;56.10;102040.91;5044716;28;20424;-69
2022/11/10 06:20:16;;;;;;;16.57;3.40;;;;;;;17.58;57.66;102049.97;5045210;28;20488;-70
2022/11/10 06:22:41;;;;;;;23.87;4.17;;;;;;;18.37;54.48;102051.81;5045040;28;20691;-69
2022/11/10 06:25:08;;;;;;;20.67;4.33;;;;;;;16.72;60.60;102050.59;5042904;28;20025;-70
2022/11/10 06:27:33;;;;;;;27.27;3.90;;;;;;;17.52;59.09;102047.47;5046271;28;20102;-70
2022/11/10 06:29:59;;;;;;;26.63;4.73;;;;;;;17.50;58.93;102057.16;5044461;28;20041;-70
2022/11/10 06:32:24;;;;;;;24.17;4.47;;;;;;;17.19;61.43;102052.50;5046115;28;20169;-70
2022/11/10 06:34:50;;;;;;;19.13;3.37;;;;;;;16.78;61.87;102063.69;5044993;28;20032;-70
2022/11/10 06:37:15;;;;;;;19.70;4.77;;;;;;;17.29;59.31;102064.59;5044257;28;20017;-70
2022/11/10 06:39:41;;;;;;;25.47;3.90;;;;;;;18.28;56.40;102068.75;5048996;28;20044;-70
2022/11/10 06:42:06;;;;;;;26.17;4.40;;;;;;;18.12;55.74;102068.25;5047055;28;20495;-70
2022/11/10 06:44:31;;;;;;;21.73;3.90;;;;;;;17.72;56.89;102065.53;5045027;28;20037;-70
2022/11/10 06:46:57;;;;;;;25.97;4.63;;;;;;;18.37;54.21;102067.69;5064856;28;20028;-70
2022/11/10 06:49:22;;;;;;;25.93;4.97;;;;;;;17.81;56.37;102082.09;5052290;28;20483;-70
2022/11/10 06:51:48;;;;;;;26.00;5.10;;;;;;;17.87;55.04;102091.66;5049345;28;20047;-70
2022/11/10 06:54:13;;;;;;;16.60;3.93;;;;;;;18.32;54.90;102096.03;5053049;28;20088;-70
2022/11/10 06:56:38;;;;;;;20.43;3.43;;;;;;;18.38;54.97;102106.50;5049877;28;20029;-70
2022/11/10 06:59:04;;;;;;;17.63;3.23;;;;;;;18.28;54.42;102115.53;5052442;28;20040;-70
2022/11/10 07:01:29;;;;;;;27.70;4.93;;;;;;;18.27;55.54;102109.38;5065711;28;20470;-70
2022/11/10 07:03:55;;;;;;;21.50;4.53;;;;;;;17.97;56.42;102121.50;5050745;28;20020;-70
2022/11/10 07:06:21;;;;;;;26.70;4.40;;;;;;;18.13;55.56;102128.22;5051775;28;20075;-70
2022/11/10 07:08:47;;;;;;;25.70;4.23;;;;;;;17.85;56.95;102132.28;5050149;28;20119;-70
2022/11/10 07:11:13;;;;;;;22.10;4.30;;;;;;;17.71;58.39;102136.06;5051682;28;20462;-70
2022/11/10 07:13:38;;;;;;;23.83;4.90;;;;;;;18.08;55.68;102134.47;5052261;28;20063;-70
2022/11/10 07:16:07;;;;;;;15.47;3.87;;;;;;;17.58;58.85;102134.56;5081910;28;20117;-70
2022/11/10 07:18:34;;;;;;;25.13;4.57;;;;;;;18.36;54.92;102134.78;5051968;28;20033;-70
2022/11/10 07:21:03;;;;;;;21.50;4.03;;;;;;;17.26;58.97;102122.81;5050900;28;20070;-70
2022/11/10 07:23:30;;;;;;;25.80;4.53;;;;;;;17.49;59.22;102124.16;5084115;28;20466;-70
2022/11/10 07:25:58;;;;;;;26.87;4.67;;;;;;;17.75;57.49;102121.91;5050255;28;20018;-70
2022/11/10 07:28:23;;;;;;;22.23;4.33;;;;;;;17.95;57.32;102107.41;5048236;28;20025;-70
2022/11/10 07:30:48;;;;;;;30.27;4.80;;;;;;;18.33;55.61;102124.25;5043861;28;20089;-70
2022/11/10 07:33:14;;;;;;;30.47;5.47;;;;;;;18.13;56.88;102116.75;5051920;28;20064;-70
2022/11/10 07:35:40;;;;;;;27.10;5.30;;;;;;;18.29;56.51;102135.81;5049770;28;20394;-70
2022/11/10 07:38:13;;;;;;;24.07;5.10;;;;;;;18.33;56.61;102145.44;5050695;28;20112;-70
2022/11/10 07:40:39;;;;;;;28.83;5.20;;;;;;;18.82;55.07;102148.72;5050410;28;20763;-70
2022/11/10 07:43:04;;;;;;;31.77;5.07;;;;;;;18.85;54.77;102161.91;5084775;28;20036;-69
2022/11/10 07:45:31;;;;;;;22.23;4.90;;;;;;;18.35;56.89;102143.59;5085670;28;20017;-70
2022/11/10 07:48:04;;;;;;;18.83;5.20;;;;;;;18.53;55.89;102146.75;5047809;28;20058;-70
2022/11/10 07:50:30;;;;;;;28.97;5.43;;;;;;;17.49;60.11;102150.56;5051326;28;20029;-71
2022/11/10 07:53:07;;;;;;;23.50;4.30;;;;;;;17.91;59.00;102154.22;5071603;28;20021;-70
2022/11/10 07:55:33;;;;;;;20.07;4.60;;;;;;;17.35;61.04;102146.44;5053056;28;20064;-70
2022/11/10 07:57:59;;;;;;;32.13;4.97;;;;;;;17.80;60.41;102150.88;5054347;28;20021;-70
2022/11/10 08:00:24;;;;;;;26.53;4.37;;;;;;;17.78;60.48;102161.50;5046921;28;20418;-70
2022/11/10 08:02:51;;;;;;;30.30;4.37;;;;;;;18.40;58.22;102162.91;5043033;28;20112;-70
2022/11/10 08:05:16;;;;;;;25.43;4.13;;;;;;;19.24;55.46;102161.84;5042492;28;20028;-70
2022/11/10 08:07:42;;;;;;;26.30;4.30;;;;;;;18.06;59.48;102176.84;5045387;28;20020;-70
2022/11/10 08:10:08;;;;;;;29.87;3.90;;;;;;;18.81;58.08;102163.75;5044637;28;20070;-71
2022/11/10 08:12:34;;;;;;;19.87;4.07;;;;;;;19.08;56.93;102164.03;5048773;28;20754;-70
2022/11/10 08:14:59;;;;;;;30.30;4.87;;;;;;;19.04;55.23;102172.09;5049409;28;20127;-70
2022/11/10 08:17:24;;;;;;;22.60;3.80;;;;;;;18.28;57.50;102171.13;5049532;28;20033;-71
2022/11/10 08:19:50;;;;;;;23.10;4.20;;;;;;;19.17;55.68;102175.31;5053060;28;20408;-70
2022/11/10 08:22:15;;;;;;;13.75;3.58;;;;;;;19.28;54.81;102181.22;5048940;28;20029;-70
2022/11/10 08:24:41;;;;;;;24.60;4.83;;;;;;;19.08;55.99;102195.84;5047141;28;20028;-70
2022/11/10 08:27:06;;;;;;;34.33;4.93;;;;;;;19.57;54.53;102193.72;5047823;28;20025;-70
2022/11/10 08:29:31;;;;;;;22.80;4.60;;;;;;;18.91;56.03;102212.13;5075954;28;20025;-70
2022/11/10 08:31:57;;;;;;;21.47;4.33;;;;;;;19.41;54.10;102201.22;5045824;28;20497;-70
2022/11/10 08:34:22;;;;;;;28.60;4.10;;;;;;;18.82;56.76;102210.53;5042317;28;20025;-70
2022/11/10 08:36:51;;;;;;;16.07;3.37;;;;;;;18.18;59.56;102219.84;5048476;28;20061;-70
2022/11/10 08:39:16;;;;;;;14.73;3.83;;;;;;;18.05;59.96;102206.88;5041135;28;20392;-70
2022/11/10 08:41:41;;;;;;;32.27;3.97;;;;;;;17.78;60.60;102211.72;5050203;28;20020;-70
2022/11/10 08:44:07;;;;;;;23.10;4.27;;;;;;;19.42;56.10;102216.19;5048918;28;20021;-70
2022/11/10 08:46:32;;;;;;;25.07;3.60;;;;;;;19.24;55.65;102221.97;5049223;28;20021;-70
2022/11/10 08:48:58;;;;;;;28.00;4.27;;;;;;;19.17;54.46;102218.59;5054259;28;20040;-70
2022/11/10 08:51:23;;;;;;;22.73;4.27;;;;;;;18.97;56.84;102233.19;5076868;28;20032;-70
2022/11/10 08:53:48;;;;;;;15.20;3.17;;;;;;;19.17;54.99;102229.19;5050219;28;20064;-70
2022/11/10 08:56:14;;;;;;;19.93;3.43;;;;;;;18.52;57.88;102219.13;5049630;28;20056;-70
2022/11/10 08:58:39;;;;;;;21.53;4.13;;;;;;;19.52;55.05;102213.31;5049547;28;20029;-70
2022/11/10 09:01:11;;;;;;;20.03;3.77;;;;;;;18.67;58.00;102218.81;5050998;28;20107;-70
2022/11/10 09:03:37;;;;;;;16.95;3.15;;;;;;;20.09;53.28;102214.47;5050175;28;20025;-69
2022/11/10 09:06:03;;;;;;;18.97;3.50;;;;;;;19.28;55.72;102215.69;5044235;28;20036;-69
2022/11/10 09:08:32;;;;;;;23.87;4.07;;;;;;;20.01;53.65;102217.34;5032546;28;20049;-69
2022/11/10 09:11:02;;;;;;;21.63;3.77;;;;;;;19.70;54.58;102218.16;5048633;28;20071;-69
2022/11/10 09:13:27;;;;;;;22.67;4.40;;;;;;;19.36;56.27;102220.78;5061387;28;20031;-69
2022/11/10 09:15:52;;;;;;;20.93;3.67;;;;;;;19.24;56.42;102224.59;5050619;28;20037;-69
2022/11/10 09:18:18;;;;;;;17.07;3.97;;;;;;;19.35;57.57;102221.69;5051094;28;20478;-70
2022/11/10 09:20:43;;;;;;;16.97;3.33;;;;;;;19.39;56.35;102229.53;5047348;28;20502;-69
2022/11/10 09:23:14;;;;;;;24.70;3.63;;;;;;;19.86;55.84;102229.22;5055418;28;20033;-69
2022/11/10 09:25:41;;;;;;;20.23;4.07;;;;;;;19.79;55.65;102233.78;5038353;28;20032;-69
2022/11/10 09:28:12;;;;;;;16.60;3.53;;;;;;;20.50;54.42;102236.31;5049974;28;20036;-69
2022/11/10 09:30:37;;;;;;;17.63;3.95;;;;;;;20.75;52.32;102239.13;5051179;28;20170;-70
2022/11/10 09:33:03;;;;;;;20.17;3.35;;;;;;;19.93;54.97;102230.81;5065793;28;20029;-68
2022/11/10 09:35:28;;;;;;;14.55;3.20;;;;;;;20.50;52.21;102252.25;5081734;28;20255;-68
2022/11/10 09:37:54;;;;;;;18.20;2.72;;;;;;;20.17;53.80;102242.53;5050138;28;20500;-70
2022/11/10 09:40:24;;;;;;;11.70;2.97;;;;;;;19.85;54.94;102256.66;5050287;28;20611;-69
2022/11/10 09:42:55;;;;;;;32.15;3.45;;;;;;;20.04;53.30;102254.38;5044408;28;20029;-70
2022/11/10 09:45:31;;;;;;;20.45;3.33;;;;;;;20.65;52.03;102256.22;5082223;28;20493;-67
2022/11/10 09:48:03;;;;;;;17.58;3.42;;;;;;;20.42;52.10;102255.09;5057285;28;20043;-68
2022/11/10 09:50:32;;;;;;;15.93;2.53;;;;;;;21.49;50.15;102266.00;5048106;28;20398;-68
2022/11/10 09:52:59;;;;;;;22.40;3.10;;;;;;;21.01;50.96;102261.34;5045706;28;20448;-68
2022/11/10 09:55:52;;;;;;;18.85;3.80;;;;;;;20.26;53.17;102265.28;5046189;28;20673;-70
2022/11/10 09:58:21;;;;;;;20.38;4.32;;;;;;;20.28;52.91;102276.75;5048544;28;20020;-70
2022/11/10 10:01:17;;;;;;;23.13;3.53;;;;;;;20.41;52.38;102279.06;5057357;28;20040;-68
2022/11/10 10:03:53;;;;;;;18.15;3.72;;;;;;;20.34;52.78;102295.13;5052414;28;20127;-68
2022/11/10 10:06:21;;;;;;;17.25;3.60;;;;;;;20.66;52.66;102311.06;5039440;28;20077;-68
2022/11/10 10:09:03;;;;;;;19.63;3.55;;;;;;;20.58;52.08;102323.72;5042291;28;20436;-68
2022/11/10 10:11:40;;;;;;;16.67;2.95;;;;;;;21.68;49.67;102334.59;5048816;28;20123;-68
2022/11/10 10:14:45;;;;;;;16.20;3.50;;;;;;;20.73;51.39;102343.69;5054128;28;20541;-68
2022/11/10 10:17:46;;;;;;;18.77;3.60;;;;;;;21.32;50.83;102343.69;5054979;28;20067;-68
2022/11/10 10:20:35;;;;;;;12.82;3.20;;;;;;;20.91;50.61;102336.97;5044253;28;20049;-69
2022/11/10 10:23:25;;;;;;;25.02;3.97;;;;;;;22.09;48.97;102345.63;5049363;28;20051;-68
2022/11/10 10:25:52;;;;;;;17.08;2.90;;;;;;;20.99;50.95;102343.81;5039164;28;20021;-69
2022/11/10 10:28:17;;;;;;;14.40;3.10;;;;;;;21.06;52.52;102339.19;5047787;28;20099;-68
2022/11/10 10:30:43;;;;;;;13.48;3.22;;;;;;;20.41;52.94;102343.63;5082502;28;20036;-68
2022/11/10 10:33:27;;;;;;;18.48;2.95;;;;;;;20.86;51.85;102333.59;5054035;28;20039;-68
2022/11/10 10:35:53;;;;;;;20.48;3.25;;;;;;;21.39;50.47;102339.03;5050847;28;20033;-68
2022/11/10 10:38:28;;;;;;;15.85;3.17;;;;;;;21.58;49.34;102333.16;5075315;28;20031;-69
2022/11/10 10:40:59;;;;;;;19.48;3.60;;;;;;;21.09;51.27;102343.50;5050977;28;20021;-68
2022/11/10 10:43:24;;;;;;;14.35;4.25;;;;;;;21.22;51.39;102328.06;5051719;28;20106;-68
2022/11/10 10:46:07;;;;;;;14.77;3.30;;;;;;;20.83;52.35;102339.84;5051359;28;20025;-68
2022/11/10 10:48:32;;;;;;;;;;;;;;;21.28;50.85;102341.16;5058417;28;20363;-68
2022/11/10 10:50:58;;;;;;;16.58;3.85;;;;;;;21.67;50.78;102349.69;5055126;28;19942;-68
2022/11/10 10:53:24;;;;;;;9.65;2.70;;;;;;;21.09;51.21;102352.38;5059345;28;20035;-70
2022/11/10 10:56:03;;;;;;;17.85;3.05;;;;;;;21.61;50.33;102351.66;5052002;28;20043;-68
2022/11/10 10:58:33;;;;;;;17.13;3.58;;;;;;;21.40;50.37;102362.03;5051952;28;20033;-68
2022/11/10 11:01:17;;;;;;;22.25;3.47;;;;;;;21.30;50.63;102350.81;5050324;28;20053;-68
2022/11/10 11:03:47;;;;;;;18.77;2.97;;;;;;;20.61;52.14;102368.81;5051883;28;20120;-68
2022/11/10 11:06:15;;;;;;;15.88;3.45;;;;;;;21.55;49.36;102366.03;5052145;28;20032;-68
2022/11/10 11:09:13;;;;;;;17.33;3.30;;;;;;;22.01;48.28;102358.34;5052192;28;20665;-68
2022/11/10 11:11:41;;;;;;;24.63;3.28;;;;;;;21.16;50.82;102369.88;5049073;28;20144;-68
2022/11/10 11:14:23;;;;;;;20.85;2.90;;;;;;;21.62;48.90;102372.03;5052210;28;20032;-69
2022/11/10 11:17:12;;;;;;;17.27;3.58;;;;;;;22.03;48.44;102375.97;5057481;28;20025;-69
2022/11/10 11:19:38;;;;;;;15.93;3.20;;;;;;;21.49;49.47;102383.03;5044244;28;20063;-68
2022/11/10 11:22:13;;;;;;;12.30;3.08;;;;;;;22.67;46.98;102395.13;5050099;28;20040;-68
2022/11/10 11:25:06;;;;;;;17.58;3.53;;;;;;;22.79;46.63;102397.34;5049329;28;20029;-68
2022/11/10 11:27:48;;;;;;;;;;;;;;;21.75;48.40;102400.00;5049871;28;20261;-69
2022/11/10 11:30:20;;;;;;;19.80;3.45;;;;;;;23.19;46.38;102393.19;5060468;28;20346;-69
2022/11/10 11:33:10;;;;;;;15.00;2.92;;;;;;;22.20;47.15;102406.47;5055862;28;20098;-68
2022/11/10 11:36:13;;;;;;;16.05;3.15;;;;;;;21.55;49.05;102407.75;5063968;28;20153;-69
2022/11/10 11:38:53;;;;;;;16.55;3.17;;;;;;;23.04;45.43;102409.75;5032835;28;20589;-69
2022/11/10 11:41:53;;;;;;;14.50;2.45;;;;;;;21.91;46.68;102410.13;5030950;28;20083;-69